createdAt,value
2023-04-06T00:00:59.555Z,57.25
2023-04-06T00:03:26.441Z,57.48
2023-04-06T00:05:53.486Z,57.58
2023-04-06T00:08:22.363Z,57.68
2023-04-06T00:10:48.865Z,58.36
2023-04-06T00:13:15.675Z,58.14
2023-04-06T00:15:42.288Z,58.09
2023-04-06T00:18:08.880Z,58.10
2023-04-06T00:20:35.498Z,58.27
2023-04-06T00:23:02.120Z,58.26
2023-04-06T00:25:28.821Z,58.25
2023-04-06T00:27:55.652Z,58.29
2023-04-06T00:30:22.275Z,58.34
2023-04-06T00:32:48.880Z,58.38
2023-04-06T00:35:16.752Z,58.89
2023-04-06T00:37:43.274Z,58.65
2023-04-06T00:40:10.522Z,59.22
2023-04-06T00:42:37.451Z,58.90
2023-04-06T00:45:04.445Z,59.31
2023-04-06T00:47:31.128Z,59.46
2023-04-06T00:49:57.784Z,60.09
2023-04-06T00:52:24.395Z,60.11
2023-04-06T00:54:51.675Z,60.23
2023-04-06T00:57:18.819Z,59.85
2023-04-06T00:59:46.487Z,59.94
2023-04-06T01:02:13.241Z,60.05
2023-04-06T01:04:39.856Z,59.94
2023-04-06T01:07:06.391Z,60.13
2023-04-06T01:09:33.023Z,60.04
2023-04-06T01:12:00.197Z,60.29
2023-04-06T01:14:26.972Z,60.46
2023-04-06T01:16:53.716Z,60.75
2023-04-06T01:19:22.066Z,60.80
2023-04-06T01:21:50.528Z,60.91
2023-04-06T01:24:17.374Z,61.03
2023-04-06T01:26:44.036Z,61.14
2023-04-06T01:29:10.566Z,61.22
2023-04-06T01:31:37.194Z,61.07
2023-04-06T01:34:03.794Z,61.12
2023-04-06T01:36:30.689Z,60.92
2023-04-06T01:38:57.348Z,61.45
2023-04-06T01:41:23.951Z,61.55
2023-04-06T01:43:50.756Z,61.39
2023-04-06T01:46:17.417Z,61.63
2023-04-06T01:48:44.004Z,61.63
2023-04-06T01:51:10.589Z,61.70
2023-04-06T01:53:37.136Z,61.78
2023-04-06T01:56:03.905Z,62.23
2023-04-06T01:58:30.491Z,62.35
2023-04-06T02:00:57.125Z,62.62
2023-04-06T02:03:23.732Z,62.27
2023-04-06T02:05:50.458Z,62.46
2023-04-06T02:08:17.104Z,62.53
2023-04-06T02:10:43.710Z,62.64
2023-04-06T02:13:10.279Z,62.68
2023-04-06T02:15:36.896Z,62.76
2023-04-06T02:18:03.515Z,62.91
2023-04-06T02:20:30.823Z,63.24
2023-04-06T02:22:59.846Z,63.22
2023-04-06T02:25:26.412Z,62.91
2023-04-06T02:27:52.982Z,63.54
2023-04-06T02:30:19.559Z,63.35
2023-04-06T02:32:46.211Z,62.93
2023-04-06T02:35:12.899Z,63.41
2023-04-06T02:37:39.435Z,63.15
2023-04-06T02:40:07.254Z,63.37
2023-04-06T02:42:34.034Z,63.26
2023-04-06T02:45:00.817Z,63.57
2023-04-06T02:47:27.403Z,63.37
2023-04-06T02:49:54.033Z,63.38
2023-04-06T02:52:20.598Z,63.77
2023-04-06T02:54:47.120Z,63.81
2023-04-06T02:57:13.699Z,64.11
2023-04-06T02:59:40.480Z,64.13
2023-04-06T03:02:07.122Z,64.26
2023-04-06T03:04:33.678Z,64.41
2023-04-06T03:07:01.413Z,64.31
2023-04-06T03:09:28.553Z,64.49
2023-04-06T03:11:55.176Z,64.64
2023-04-06T03:14:23.227Z,64.70
2023-04-06T03:16:50.062Z,64.82
2023-04-06T03:19:16.704Z,64.78
2023-04-06T03:21:43.370Z,64.78
2023-04-06T03:24:09.962Z,64.76
2023-04-06T03:26:36.556Z,65.08
2023-04-06T03:29:03.225Z,65.17
2023-04-06T03:31:29.825Z,64.97
2023-04-06T03:33:56.510Z,65.14
2023-04-06T03:36:23.142Z,65.09
2023-04-06T03:38:49.765Z,65.06
2023-04-06T03:41:16.337Z,65.31
2023-04-06T03:43:42.866Z,65.02
2023-04-06T03:46:09.472Z,65.31
2023-04-06T03:48:36.154Z,64.96
2023-04-06T03:51:02.755Z,65.17
2023-04-06T03:53:29.377Z,65.08
2023-04-06T03:55:56.177Z,65.21
2023-04-06T03:58:22.807Z,65.30
2023-04-06T04:00:49.380Z,65.38
2023-04-06T04:03:16.057Z,65.38
2023-04-06T04:05:43.965Z,65.31
2023-04-06T04:08:10.620Z,65.41
2023-04-06T04:10:37.203Z,65.29
2023-04-06T04:13:03.741Z,65.05
2023-04-06T04:15:30.395Z,65.44
2023-04-06T04:17:57.011Z,65.14
2023-04-06T04:20:23.707Z,64.96
2023-04-06T04:22:50.263Z,65.22
2023-04-06T04:25:16.817Z,65.14
2023-04-06T04:27:43.395Z,65.35
2023-04-06T04:30:10.404Z,64.80
2023-04-06T04:32:37.072Z,65.11
2023-04-06T04:35:04.133Z,64.82
2023-04-06T04:37:30.906Z,64.94
2023-04-06T04:39:57.779Z,64.93
2023-04-06T04:42:24.299Z,65.21
2023-04-06T04:44:50.980Z,65.39
2023-04-06T04:47:17.525Z,65.12
2023-04-06T04:49:44.103Z,65.02
2023-04-06T04:52:10.881Z,65.08
2023-04-06T04:54:37.457Z,67.01
2023-04-06T04:57:04.047Z,68.15
2023-04-06T04:59:30.934Z,66.24
2023-04-06T05:01:57.706Z,64.10
2023-04-06T05:04:25.006Z,62.52
2023-04-06T05:06:51.697Z,61.44
2023-04-06T05:09:18.761Z,59.60
2023-04-06T05:11:45.431Z,58.63
2023-04-06T05:14:12.108Z,58.98
2023-04-06T05:16:38.702Z,59.67
2023-04-06T05:19:05.308Z,60.65
2023-04-06T05:21:32.784Z,60.93
2023-04-06T05:23:59.682Z,61.35
2023-04-06T05:26:26.354Z,61.90
2023-04-06T05:28:52.949Z,62.59
2023-04-06T05:31:19.630Z,62.88
2023-04-06T05:33:46.405Z,63.02
2023-04-06T05:36:15.054Z,63.28
2023-04-06T05:38:41.961Z,63.45
2023-04-06T05:41:08.567Z,63.96
2023-04-06T05:43:35.499Z,63.60
2023-04-06T05:46:02.229Z,63.58
2023-04-06T05:48:28.903Z,63.86
2023-04-06T05:50:55.946Z,64.00
2023-04-06T05:53:22.544Z,63.95
2023-04-06T05:55:49.103Z,64.19
2023-04-06T05:58:15.971Z,63.85
2023-04-06T06:00:43.721Z,64.06
2023-04-06T06:03:11.085Z,64.16
2023-04-06T06:05:37.727Z,64.06
2023-04-06T06:08:04.445Z,63.92
2023-04-06T06:10:31.217Z,64.05
2023-04-06T06:12:57.760Z,64.14
2023-04-06T06:15:24.416Z,63.62
2023-04-06T06:17:50.989Z,63.78
2023-04-06T06:20:17.735Z,63.58
2023-04-06T06:22:44.397Z,63.15
2023-04-06T06:25:10.943Z,63.28
2023-04-06T06:27:37.673Z,62.95
2023-04-06T06:30:04.916Z,63.21
2023-04-06T06:32:31.580Z,62.84
2023-04-06T06:34:58.147Z,62.51
2023-04-06T06:37:24.766Z,61.95
2023-04-06T06:39:51.437Z,62.30
2023-04-06T06:42:18.108Z,61.63
2023-04-06T06:44:44.852Z,61.67
2023-04-06T06:47:11.593Z,61.84
2023-04-06T06:49:38.156Z,61.79
2023-04-06T06:52:04.834Z,61.72
2023-04-06T06:54:31.395Z,61.65
2023-04-06T06:56:57.934Z,61.07
2023-04-06T06:59:24.655Z,60.86
2023-04-06T07:01:51.382Z,61.09
2023-04-06T07:04:18.017Z,60.91
2023-04-06T07:06:44.732Z,60.97
2023-04-06T07:09:11.340Z,60.84
2023-04-06T07:11:37.947Z,60.66
2023-04-06T07:14:04.492Z,59.98
2023-04-06T07:16:31.238Z,59.76
2023-04-06T07:18:58.006Z,59.10
2023-04-06T07:21:24.580Z,59.26
2023-04-06T07:23:51.827Z,59.26
2023-04-06T07:26:18.610Z,59.29
2023-04-06T07:28:46.441Z,59.19
2023-04-06T07:31:13.213Z,58.99
2023-04-06T07:33:39.786Z,58.08
2023-04-06T07:36:06.469Z,58.22
2023-04-06T07:38:33.209Z,57.34
2023-04-06T07:40:59.795Z,57.24
2023-04-06T07:43:26.397Z,57.01
2023-04-06T07:45:53.273Z,57.08
2023-04-06T07:48:19.837Z,56.47
2023-04-06T07:50:46.496Z,56.57
2023-04-06T07:53:13.095Z,55.91
2023-04-06T07:55:39.831Z,56.27
2023-04-06T07:58:06.459Z,56.18
2023-04-06T08:00:33.242Z,55.89
2023-04-06T08:03:00.098Z,55.82
2023-04-06T08:05:27.015Z,55.44
2023-04-06T08:07:53.732Z,55.14
2023-04-06T08:10:20.548Z,55.01
2023-04-06T08:12:47.183Z,54.82
2023-04-06T08:15:13.765Z,54.57
2023-04-06T08:17:40.772Z,54.47
2023-04-06T08:20:07.727Z,54.94
2023-04-06T08:22:34.286Z,54.34
2023-04-06T08:25:00.867Z,53.33
2023-04-06T08:27:27.551Z,53.57
2023-04-06T08:29:54.191Z,53.48
2023-04-06T08:32:20.871Z,53.25
2023-04-06T08:34:47.949Z,53.13
2023-04-06T08:37:14.578Z,52.83
2023-04-06T08:39:41.333Z,52.38
2023-04-06T08:42:17.405Z,52.36
2023-04-06T08:44:45.098Z,52.34
2023-04-06T08:47:11.889Z,51.72
2023-04-06T08:49:39.857Z,51.42
2023-04-06T08:52:08.979Z,51.37
2023-04-06T08:54:35.841Z,50.45
2023-04-06T08:57:03.981Z,49.83
2023-04-06T08:59:31.630Z,49.73
2023-04-06T09:02:00.164Z,49.74
2023-04-06T09:04:27.914Z,49.59
2023-04-06T09:06:54.603Z,49.17
2023-04-06T09:09:24.194Z,48.62
2023-04-06T09:11:53.234Z,48.07
2023-04-06T09:14:39.108Z,47.79
2023-04-06T09:17:06.509Z,47.98
2023-04-06T09:19:33.233Z,47.71
2023-04-06T09:22:04.850Z,47.13
2023-04-06T09:24:48.774Z,47.55
2023-04-06T09:27:16.448Z,47.22
2023-04-06T09:29:43.995Z,46.97
2023-04-06T09:32:12.066Z,46.21
2023-04-06T09:34:41.960Z,45.91
2023-04-06T09:37:15.433Z,45.82
2023-04-06T09:39:42.311Z,44.47
2023-04-06T09:42:09.236Z,45.22
2023-04-06T09:44:35.919Z,44.98
2023-04-06T09:47:07.350Z,44.95
2023-04-06T09:49:34.645Z,44.19
2023-04-06T09:52:03.864Z,43.03
2023-04-06T09:54:32.545Z,42.54
2023-04-06T09:57:22.796Z,42.90
2023-04-06T10:00:10.640Z,41.46
2023-04-06T10:02:49.130Z,42.27
2023-04-06T10:05:22.059Z,42.39
2023-04-06T10:10:23.874Z,39.78
2023-04-06T10:12:50.950Z,39.18
2023-04-06T10:15:19.689Z,38.96
2023-04-06T10:17:47.706Z,38.79
2023-04-06T10:20:22.476Z,39.29
2023-04-06T10:23:03.021Z,39.49
2023-04-06T10:25:34.279Z,40.44
2023-04-06T10:28:08.272Z,40.35
2023-04-06T10:30:36.346Z,40.65
2023-04-06T10:33:14.796Z,41.26
2023-04-06T10:35:41.727Z,41.86
2023-04-06T10:38:08.780Z,41.45
2023-04-06T10:40:39.691Z,41.31
2023-04-06T10:43:14.345Z,41.50
2023-04-06T10:45:42.016Z,42.26
2023-04-06T10:48:19.032Z,42.50
2023-04-06T10:50:50.566Z,42.45
2023-04-06T10:53:27.698Z,42.00
2023-04-06T10:55:57.895Z,42.57
2023-04-06T10:58:28.634Z,42.50
2023-04-06T11:01:00.830Z,41.99
2023-04-06T11:03:28.269Z,42.23
2023-04-06T11:05:54.892Z,42.87
2023-04-06T11:08:33.899Z,42.62
2023-04-06T11:11:10.811Z,42.66
2023-04-06T11:13:48.089Z,43.17
2023-04-06T11:16:15.816Z,43.56
2023-04-06T11:18:49.878Z,43.47
2023-04-06T11:21:16.521Z,43.57
2023-04-06T11:23:43.118Z,44.31
2023-04-06T11:26:13.774Z,44.66
2023-04-06T11:28:45.548Z,44.22
2023-04-06T11:31:12.646Z,45.37
2023-04-06T11:33:40.003Z,45.06
2023-04-06T11:36:07.670Z,45.81
2023-04-06T11:38:34.750Z,46.35
2023-04-06T11:41:02.499Z,46.41
2023-04-06T11:43:32.528Z,46.94
2023-04-06T11:46:03.647Z,46.46
2023-04-06T11:48:31.145Z,47.37
2023-04-06T11:50:59.892Z,46.36
2023-04-06T11:53:27.174Z,46.89
2023-04-06T11:55:53.844Z,47.02
2023-04-06T11:58:20.547Z,47.02
2023-04-06T12:00:47.955Z,47.13
2023-04-06T12:03:15.018Z,45.93
2023-04-06T12:05:41.923Z,46.69
2023-04-06T12:08:08.527Z,46.65
2023-04-06T12:10:35.380Z,47.51
2023-04-06T12:13:01.951Z,48.10
2023-04-06T12:15:28.553Z,48.44
2023-04-06T12:17:55.143Z,49.12
2023-04-06T12:20:26.972Z,49.82
2023-04-06T12:22:54.582Z,49.70
2023-04-06T12:25:21.584Z,49.49
2023-04-06T12:27:48.332Z,50.33
2023-04-06T12:30:15.509Z,50.89
2023-04-06T12:32:42.182Z,49.97
2023-04-06T12:35:10.167Z,50.37
2023-04-06T12:37:37.790Z,51.28
2023-04-06T12:40:05.261Z,52.01
2023-04-06T12:42:31.926Z,52.73
2023-04-06T12:44:58.458Z,53.15
2023-04-06T12:47:27.366Z,53.27
2023-04-06T12:49:55.198Z,54.74
2023-04-06T12:52:21.891Z,55.21
2023-04-06T12:54:50.075Z,55.40
2023-04-06T12:57:18.240Z,55.47
2023-04-06T12:59:45.700Z,55.62
2023-04-06T13:02:12.780Z,56.45
2023-04-06T13:04:39.639Z,57.75
2023-04-06T13:07:06.491Z,56.53
2023-04-06T13:09:33.070Z,57.07
2023-04-06T13:11:59.706Z,57.75
2023-04-06T13:14:26.646Z,57.27
2023-04-06T13:16:53.272Z,56.99
2023-04-06T13:19:19.905Z,57.41
2023-04-06T13:21:46.503Z,57.75
2023-04-06T13:24:14.054Z,58.34
2023-04-06T13:26:41.775Z,59.06
2023-04-06T13:29:08.321Z,58.52
2023-04-06T13:31:34.936Z,59.86
2023-04-06T13:34:01.674Z,60.52
2023-04-06T13:36:28.269Z,60.85
2023-04-06T13:38:56.444Z,61.76
2023-04-06T13:41:24.562Z,61.22
2023-04-06T13:43:51.165Z,59.99
2023-04-06T13:46:18.161Z,60.14
2023-04-06T13:48:45.523Z,60.55
2023-04-06T13:51:13.303Z,60.36
2023-04-06T13:53:41.738Z,60.30
2023-04-06T13:56:09.366Z,59.77
2023-04-06T13:58:37.222Z,60.67
2023-04-06T14:01:07.283Z,61.86
2023-04-06T14:03:34.727Z,62.19
2023-04-06T14:06:05.167Z,62.24
2023-04-06T14:08:42.347Z,61.81
2023-04-06T14:11:13.300Z,63.23
2023-04-06T14:13:40.605Z,63.14
2023-04-06T14:16:08.218Z,63.30
2023-04-06T14:18:35.127Z,62.71
2023-04-06T14:21:02.057Z,63.30
2023-04-06T14:23:29.671Z,64.08
2023-04-06T14:26:06.880Z,63.34
2023-04-06T14:28:34.140Z,64.13
2023-04-06T14:31:01.760Z,63.80
2023-04-06T14:33:28.521Z,63.92
2023-04-06T14:35:55.158Z,63.25
2023-04-06T14:38:21.874Z,63.51
2023-04-06T14:40:48.681Z,63.92
2023-04-06T14:43:16.092Z,63.61
2023-04-06T14:45:42.619Z,63.89
2023-04-06T14:48:12.889Z,63.13
2023-04-06T14:50:42.286Z,63.46
2023-04-06T14:53:08.826Z,64.11
2023-04-06T14:55:41.561Z,64.30
2023-04-06T14:58:08.071Z,64.31
2023-04-06T15:00:34.621Z,63.97
2023-04-06T15:03:01.400Z,63.76
2023-04-06T15:05:28.111Z,63.65
2023-04-06T15:07:54.635Z,64.07
2023-04-06T15:10:21.291Z,64.40
2023-04-06T15:12:47.782Z,63.04
2023-04-06T15:15:14.505Z,62.77
2023-04-06T15:17:41.115Z,62.46
2023-04-06T15:20:08.028Z,62.76
2023-04-06T15:22:34.616Z,63.04
2023-04-06T15:25:01.139Z,63.13
2023-04-06T15:27:27.634Z,63.09
2023-04-06T15:29:54.898Z,63.09
2023-04-06T15:32:21.699Z,63.41
2023-04-06T15:34:48.347Z,62.75
2023-04-06T15:37:14.936Z,63.79
2023-04-06T15:39:41.604Z,64.40
2023-04-06T15:42:08.231Z,64.42
2023-04-06T15:44:34.767Z,64.60
2023-04-06T15:47:01.414Z,63.43
2023-04-06T15:49:27.942Z,63.62
2023-04-06T15:51:54.603Z,64.13
2023-04-06T15:54:21.633Z,63.62
2023-04-06T15:56:49.026Z,63.95
2023-04-06T15:59:16.809Z,63.65
2023-04-06T16:01:43.761Z,64.53
2023-04-06T16:04:11.743Z,64.82
2023-04-06T16:06:38.458Z,64.38
2023-04-06T16:09:05.040Z,64.34
2023-04-06T16:11:32.719Z,64.29
2023-04-06T16:13:59.788Z,64.48
2023-04-06T16:16:27.327Z,63.55
2023-04-06T16:18:54.105Z,63.95
2023-04-06T16:21:20.854Z,63.89
2023-04-06T16:23:48.177Z,63.12
2023-04-06T16:26:16.581Z,63.46
2023-04-06T16:28:43.177Z,63.67
2023-04-06T16:31:23.511Z,64.67
2023-04-06T16:33:51.628Z,64.70
2023-04-06T16:36:29.089Z,65.21
2023-04-06T16:38:56.663Z,65.99
2023-04-06T16:41:23.535Z,65.80
2023-04-06T16:43:50.572Z,66.48
2023-04-06T16:46:17.557Z,66.60
2023-04-06T16:48:44.289Z,66.97
2023-04-06T16:51:11.147Z,67.18
2023-04-06T16:53:38.599Z,67.64
2023-04-06T16:56:06.350Z,68.56
2023-04-06T16:58:36.297Z,68.62
2023-04-06T17:01:02.960Z,68.75
2023-04-06T17:03:30.735Z,69.01
2023-04-06T17:05:57.737Z,69.31
2023-04-06T17:08:24.329Z,69.25
2023-04-06T17:10:59.554Z,70.12
2023-04-06T17:13:30.883Z,70.46
2023-04-06T17:15:57.417Z,70.79
2023-04-06T17:18:24.248Z,71.17
2023-04-06T17:20:50.843Z,71.59
2023-04-06T17:23:17.453Z,70.75
2023-04-06T17:25:44.049Z,71.60
2023-04-06T17:28:10.661Z,71.01
2023-04-06T17:30:37.513Z,70.91
2023-04-06T17:33:04.173Z,71.13
2023-04-06T17:35:30.939Z,71.26
2023-04-06T17:37:57.455Z,71.38
2023-04-06T17:40:24.143Z,71.63
2023-04-06T17:42:50.951Z,71.12
2023-04-06T17:45:17.548Z,72.02
2023-04-06T17:47:44.228Z,71.53
2023-04-06T17:50:11.580Z,71.34
2023-04-06T17:52:38.232Z,71.67
2023-04-06T17:55:05.113Z,72.21
2023-04-06T17:57:31.658Z,71.84
2023-04-06T17:59:58.274Z,72.19
2023-04-06T18:02:25.048Z,72.11
2023-04-06T18:04:55.410Z,72.12
2023-04-06T18:07:22.168Z,72.26
2023-04-06T18:09:48.747Z,72.11
2023-04-06T18:12:15.522Z,72.16
2023-04-06T18:14:42.825Z,72.79
2023-04-06T18:17:09.349Z,72.51
2023-04-06T18:19:35.906Z,72.34
2023-04-06T18:22:02.515Z,72.18
2023-04-06T18:24:41.511Z,71.54
2023-04-06T18:27:09.986Z,72.21
2023-04-06T18:29:37.031Z,72.10
2023-04-06T18:32:04.184Z,71.97
2023-04-06T18:34:30.834Z,72.46
2023-04-06T18:36:57.539Z,72.02
2023-04-06T18:39:24.161Z,72.31
2023-04-06T18:41:50.740Z,72.29
2023-04-06T18:44:17.289Z,72.35
2023-04-06T18:46:44.815Z,72.38
2023-04-06T18:49:12.307Z,72.58
2023-04-06T18:51:41.454Z,72.68
2023-04-06T18:54:08.104Z,72.38
2023-04-06T18:56:34.704Z,72.46
2023-04-06T18:59:01.210Z,72.31
2023-04-06T19:01:29.286Z,72.44
2023-04-06T19:03:57.708Z,72.59
2023-04-06T19:06:27.026Z,72.81
2023-04-06T19:08:53.882Z,72.79
2023-04-06T19:11:23.295Z,72.75
2023-04-06T19:13:50.355Z,72.68
2023-04-06T19:16:18.144Z,73.08
2023-04-06T19:18:45.586Z,73.32
2023-04-06T19:21:20.965Z,73.07
2023-04-06T19:23:49.435Z,72.99
2023-04-06T19:26:17.570Z,72.94
2023-04-06T19:28:44.965Z,73.13
2023-04-06T19:31:14.475Z,73.08
2023-04-06T19:33:41.294Z,73.18
2023-04-06T19:36:08.398Z,73.15
2023-04-06T19:38:36.721Z,73.23
2023-04-06T19:41:04.324Z,73.37
2023-04-06T19:43:30.922Z,73.16
2023-04-06T19:45:57.502Z,73.38
2023-04-06T19:48:24.158Z,73.03
2023-04-06T19:50:54.877Z,73.22
2023-04-06T19:53:22.693Z,73.22
2023-04-06T19:55:49.301Z,73.54
2023-04-06T19:58:15.897Z,73.27
2023-04-06T20:00:42.742Z,73.34
2023-04-06T20:03:09.469Z,73.25
2023-04-06T20:05:36.303Z,73.36
2023-04-06T20:08:02.945Z,73.15
2023-04-06T20:10:29.514Z,73.03
2023-04-06T20:12:56.120Z,73.29
2023-04-06T20:15:23.259Z,73.02
2023-04-06T20:17:49.872Z,73.01
2023-04-06T20:20:16.543Z,73.24
2023-04-06T20:22:43.253Z,73.27
2023-04-06T20:25:11.432Z,73.24
2023-04-06T20:27:38.100Z,73.42
2023-04-06T20:30:05.087Z,73.76
2023-04-06T20:32:31.709Z,73.67
2023-04-06T20:34:59.001Z,73.95
2023-04-06T20:37:25.579Z,73.81
2023-04-06T20:39:52.237Z,73.73
2023-04-06T20:42:19.138Z,73.53
2023-04-06T20:44:46.717Z,73.45
2023-04-06T20:47:13.230Z,73.89
2023-04-06T20:49:39.872Z,73.83
2023-04-06T20:52:06.413Z,73.41
2023-04-06T20:54:32.940Z,73.98
2023-04-06T20:57:02.887Z,73.74
2023-04-06T20:59:29.489Z,73.68
2023-04-06T21:01:56.106Z,73.85
2023-04-06T21:04:23.336Z,73.91
2023-04-06T21:06:50.133Z,73.61
2023-04-06T21:09:17.068Z,73.91
2023-04-06T21:11:43.604Z,73.48
2023-04-06T21:14:10.342Z,73.84
2023-04-06T21:16:37.724Z,74.15
2023-04-06T21:19:04.280Z,73.82
2023-04-06T21:21:30.785Z,74.09
2023-04-06T21:23:58.485Z,74.34
2023-04-06T21:26:25.174Z,74.38
2023-04-06T21:28:51.722Z,74.68
2023-04-06T21:31:20.033Z,74.47
2023-04-06T21:33:47.168Z,75.19
2023-04-06T21:36:13.784Z,75.30
2023-04-06T21:38:40.368Z,75.25
2023-04-06T21:41:07.352Z,75.41
2023-04-06T21:43:34.013Z,75.65
2023-04-06T21:46:00.825Z,75.92
2023-04-06T21:48:27.415Z,76.32
2023-04-06T21:50:53.910Z,76.30
2023-04-06T21:53:20.739Z,76.42
2023-04-06T21:55:47.858Z,76.57
2023-04-06T21:58:15.268Z,76.87
2023-04-06T22:00:42.316Z,76.85
2023-04-06T22:03:09.095Z,77.18
2023-04-06T22:05:40.021Z,77.28
2023-04-06T22:08:06.786Z,76.42
2023-04-06T22:10:33.409Z,76.42
2023-04-06T22:12:59.943Z,76.32
2023-04-06T22:15:26.777Z,76.13
2023-04-06T22:17:53.541Z,75.73
2023-04-06T22:20:20.107Z,76.25
2023-04-06T22:22:46.755Z,76.07
2023-04-06T22:25:13.302Z,76.18
2023-04-06T22:27:39.835Z,76.00
2023-04-06T22:30:07.142Z,76.37
2023-04-06T22:32:33.741Z,76.34
2023-04-06T22:35:00.289Z,76.86
2023-04-06T22:37:26.835Z,77.23
2023-04-06T22:39:53.359Z,77.20
2023-04-06T22:42:19.957Z,76.99
2023-04-06T22:44:46.513Z,76.68
2023-04-06T22:47:13.154Z,76.58
2023-04-06T22:49:39.725Z,76.57
2023-04-06T22:52:06.348Z,76.47
2023-04-06T22:54:33.030Z,76.38
2023-04-06T22:56:59.742Z,76.42
2023-04-06T22:59:26.357Z,76.45
2023-04-06T23:01:52.982Z,76.52
2023-04-06T23:04:19.964Z,76.02
2023-04-06T23:06:46.848Z,76.03
2023-04-06T23:09:13.431Z,76.24
2023-04-06T23:11:39.983Z,76.46
2023-04-06T23:14:06.504Z,76.59
2023-04-06T23:16:33.234Z,76.45
2023-04-06T23:18:59.801Z,75.93
2023-04-06T23:21:26.819Z,76.00
2023-04-06T23:23:53.473Z,75.87
2023-04-06T23:26:20.026Z,76.28
2023-04-06T23:28:46.694Z,76.33
2023-04-06T23:31:13.200Z,76.61
2023-04-06T23:33:39.775Z,77.18
2023-04-06T23:36:06.681Z,76.99
2023-04-06T23:38:33.282Z,77.05
2023-04-06T23:40:59.866Z,77.25
2023-04-06T23:43:26.528Z,77.70
2023-04-06T23:45:53.307Z,78.04
2023-04-06T23:52:07.509Z,78.17
2023-04-06T23:54:34.067Z,78.26
2023-04-06T23:57:01.396Z,78.25
2023-04-06T23:59:27.982Z,78.19
